sensor_id;sensor_type;location;lat;lon;timestamp;P1;durP1;ratioP1;P2;durP2;ratioP2
63005;SDS011;53704;52.532;6.426;2023-04-03T00:02:14;2.90;;;1.05;;
63005;SDS011;53704;52.532;6.426;2023-04-03T00:04:39;1.45;;;1.30;;
63005;SDS011;53704;52.532;6.426;2023-04-03T00:07:05;3.08;;;1.63;;
63005;SDS011;53704;52.532;6.426;2023-04-03T00:09:31;4.78;;;1.45;;
63005;SDS011;53704;52.532;6.426;2023-04-03T00:11:56;1.98;;;1.30;;
63005;SDS011;53704;52.532;6.426;2023-04-03T00:14:22;4.28;;;1.42;;
63005;SDS011;53704;52.532;6.426;2023-04-03T00:16:47;5.03;;;1.38;;
63005;SDS011;53704;52.532;6.426;2023-04-03T00:19:12;4.55;;;1.77;;
63005;SDS011;53704;52.532;6.426;2023-04-03T00:21:38;4.85;;;1.52;;
63005;SDS011;53704;52.532;6.426;2023-04-03T00:24:04;4.53;;;1.55;;
63005;SDS011;53704;52.532;6.426;2023-04-03T00:26:29;5.40;;;1.52;;
63005;SDS011;53704;52.532;6.426;2023-04-03T00:28:55;10.73;;;1.70;;
63005;SDS011;53704;52.532;6.426;2023-04-03T00:31:21;4.22;;;1.70;;
63005;SDS011;53704;52.532;6.426;2023-04-03T00:33:47;1.80;;;1.40;;
63005;SDS011;53704;52.532;6.426;2023-04-03T00:36:12;6.57;;;1.52;;
63005;SDS011;53704;52.532;6.426;2023-04-03T00:38:38;9.32;;;1.98;;
63005;SDS011;53704;52.532;6.426;2023-04-03T00:41:03;2.92;;;1.55;;
63005;SDS011;53704;52.532;6.426;2023-04-03T00:43:29;4.57;;;1.98;;
63005;SDS011;53704;52.532;6.426;2023-04-03T00:45:55;12.50;;;1.98;;
63005;SDS011;53704;52.532;6.426;2023-04-03T00:48:23;1.92;;;1.23;;
63005;SDS011;53704;52.532;6.426;2023-04-03T00:50:55;6.05;;;2.15;;
63005;SDS011;53704;52.532;6.426;2023-04-03T00:53:23;3.78;;;1.45;;
63005;SDS011;53704;52.532;6.426;2023-04-03T00:55:53;1.52;;;1.42;;
63005;SDS011;53704;52.532;6.426;2023-04-03T00:58:21;3.05;;;1.50;;
63005;SDS011;53704;52.532;6.426;2023-04-03T01:00:53;3.10;;;1.70;;
63005;SDS011;53704;52.532;6.426;2023-04-03T01:03:23;4.50;;;1.90;;
63005;SDS011;53704;52.532;6.426;2023-04-03T01:05:49;2.83;;;1.27;;
63005;SDS011;53704;52.532;6.426;2023-04-03T01:08:15;7.65;;;2.17;;
63005;SDS011;53704;52.532;6.426;2023-04-03T01:10:41;4.32;;;2.10;;
63005;SDS011;53704;52.532;6.426;2023-04-03T01:13:20;3.28;;;1.60;;
63005;SDS011;53704;52.532;6.426;2023-04-03T01:15:49;7.70;;;1.95;;
63005;SDS011;53704;52.532;6.426;2023-04-03T01:18:15;4.40;;;2.08;;
63005;SDS011;53704;52.532;6.426;2023-04-03T01:28:12;7.72;;;1.98;;
63005;SDS011;53704;52.532;6.426;2023-04-03T01:31:31;9.70;;;2.55;;
63005;SDS011;53704;52.532;6.426;2023-04-03T01:33:45;6.57;;;1.90;;
63005;SDS011;53704;52.532;6.426;2023-04-03T01:36:13;5.25;;;1.77;;
63005;SDS011;53704;52.532;6.426;2023-04-03T01:38:41;7.47;;;2.53;;
63005;SDS011;53704;52.532;6.426;2023-04-03T01:41:06;5.93;;;2.25;;
63005;SDS011;53704;52.532;6.426;2023-04-03T01:43:31;3.83;;;2.60;;
63005;SDS011;53704;52.532;6.426;2023-04-03T01:45:57;3.08;;;1.65;;
63005;SDS011;53704;52.532;6.426;2023-04-03T01:48:22;3.83;;;1.95;;
63005;SDS011;53704;52.532;6.426;2023-04-03T01:50:48;4.95;;;2.50;;
63005;SDS011;53704;52.532;6.426;2023-04-03T01:53:13;6.57;;;2.45;;
63005;SDS011;53704;52.532;6.426;2023-04-03T01:55:39;6.22;;;2.30;;
63005;SDS011;53704;52.532;6.426;2023-04-03T01:58:04;4.88;;;1.85;;
63005;SDS011;53704;52.532;6.426;2023-04-03T02:00:30;7.18;;;2.38;;
63005;SDS011;53704;52.532;6.426;2023-04-03T02:02:55;2.90;;;2.10;;
63005;SDS011;53704;52.532;6.426;2023-04-03T02:05:21;2.38;;;1.70;;
63005;SDS011;53704;52.532;6.426;2023-04-03T02:07:47;3.45;;;1.88;;
63005;SDS011;53704;52.532;6.426;2023-04-03T02:10:12;3.97;;;1.88;;
63005;SDS011;53704;52.532;6.426;2023-04-03T02:12:38;4.38;;;1.63;;
63005;SDS011;53704;52.532;6.426;2023-04-03T02:15:04;12.10;;;2.50;;
63005;SDS011;53704;52.532;6.426;2023-04-03T02:17:30;7.47;;;2.35;;
63005;SDS011;53704;52.532;6.426;2023-04-03T02:19:55;9.05;;;2.20;;
63005;SDS011;53704;52.532;6.426;2023-04-03T02:22:20;5.35;;;2.30;;
63005;SDS011;53704;52.532;6.426;2023-04-03T02:24:46;6.82;;;2.67;;
63005;SDS011;53704;52.532;6.426;2023-04-03T02:27:11;2.55;;;1.92;;
63005;SDS011;53704;52.532;6.426;2023-04-03T02:29:37;7.25;;;1.83;;
63005;SDS011;53704;52.532;6.426;2023-04-03T02:32:02;17.48;;;2.60;;
63005;SDS011;53704;52.532;6.426;2023-04-03T02:34:28;13.60;;;2.22;;
63005;SDS011;53704;52.532;6.426;2023-04-03T02:36:53;20.63;;;2.33;;
63005;SDS011;53704;52.532;6.426;2023-04-03T02:39:18;16.08;;;3.42;;
63005;SDS011;53704;52.532;6.426;2023-04-03T02:41:44;6.90;;;2.30;;
63005;SDS011;53704;52.532;6.426;2023-04-03T02:44:10;4.30;;;2.35;;
63005;SDS011;53704;52.532;6.426;2023-04-03T02:46:36;7.28;;;2.30;;
63005;SDS011;53704;52.532;6.426;2023-04-03T02:49:01;5.38;;;2.47;;
63005;SDS011;53704;52.532;6.426;2023-04-03T02:51:27;6.15;;;2.65;;
63005;SDS011;53704;52.532;6.426;2023-04-03T02:53:52;9.63;;;2.60;;
63005;SDS011;53704;52.532;6.426;2023-04-03T02:56:18;4.15;;;1.88;;
63005;SDS011;53704;52.532;6.426;2023-04-03T02:58:45;3.88;;;2.20;;
63005;SDS011;53704;52.532;6.426;2023-04-03T03:01:10;9.90;;;2.20;;
63005;SDS011;53704;52.532;6.426;2023-04-03T03:03:36;5.70;;;2.42;;
63005;SDS011;53704;52.532;6.426;2023-04-03T03:06:05;5.50;;;2.10;;
63005;SDS011;53704;52.532;6.426;2023-04-03T03:08:39;6.55;;;2.42;;
63005;SDS011;53704;52.532;6.426;2023-04-03T03:11:06;10.95;;;2.42;;
63005;SDS011;53704;52.532;6.426;2023-04-03T03:13:31;4.25;;;2.00;;
63005;SDS011;53704;52.532;6.426;2023-04-03T03:15:58;2.22;;;1.83;;
63005;SDS011;53704;52.532;6.426;2023-04-03T03:18:23;4.28;;;2.42;;
63005;SDS011;53704;52.532;6.426;2023-04-03T03:20:53;5.43;;;2.03;;
63005;SDS011;53704;52.532;6.426;2023-04-03T03:23:19;4.88;;;2.50;;
63005;SDS011;53704;52.532;6.426;2023-04-03T03:25:46;5.93;;;2.38;;
63005;SDS011;53704;52.532;6.426;2023-04-03T03:28:11;4.78;;;1.98;;
63005;SDS011;53704;52.532;6.426;2023-04-03T03:30:37;3.15;;;2.53;;
63005;SDS011;53704;52.532;6.426;2023-04-03T03:33:02;7.95;;;1.92;;
63005;SDS011;53704;52.532;6.426;2023-04-03T03:35:28;4.75;;;2.28;;
63005;SDS011;53704;52.532;6.426;2023-04-03T03:37:53;6.60;;;2.60;;
63005;SDS011;53704;52.532;6.426;2023-04-03T03:40:19;10.40;;;2.45;;
63005;SDS011;53704;52.532;6.426;2023-04-03T03:42:44;12.85;;;2.45;;
63005;SDS011;53704;52.532;6.426;2023-04-03T03:45:10;6.63;;;2.13;;
63005;SDS011;53704;52.532;6.426;2023-04-03T03:47:35;4.65;;;1.90;;
63005;SDS011;53704;52.532;6.426;2023-04-03T03:50:01;4.63;;;2.30;;
63005;SDS011;53704;52.532;6.426;2023-04-03T03:52:27;4.22;;;2.28;;
63005;SDS011;53704;52.532;6.426;2023-04-03T03:54:53;4.47;;;2.83;;
63005;SDS011;53704;52.532;6.426;2023-04-03T03:57:18;7.57;;;2.67;;
63005;SDS011;53704;52.532;6.426;2023-04-03T03:59:44;8.00;;;2.50;;
63005;SDS011;53704;52.532;6.426;2023-04-03T04:02:10;3.25;;;2.10;;
63005;SDS011;53704;52.532;6.426;2023-04-03T04:04:36;2.22;;;1.98;;
63005;SDS011;53704;52.532;6.426;2023-04-03T04:07:02;8.30;;;2.58;;
63005;SDS011;53704;52.532;6.426;2023-04-03T04:09:28;13.90;;;2.47;;
63005;SDS011;53704;52.532;6.426;2023-04-03T04:11:53;3.72;;;2.78;;
63005;SDS011;53704;52.532;6.426;2023-04-03T04:14:19;7.22;;;2.58;;
63005;SDS011;53704;52.532;6.426;2023-04-03T04:16:45;7.77;;;2.60;;
63005;SDS011;53704;52.532;6.426;2023-04-03T04:19:12;4.82;;;2.03;;
63005;SDS011;53704;52.532;6.426;2023-04-03T04:21:38;6.95;;;2.30;;
63005;SDS011;53704;52.532;6.426;2023-04-03T04:24:04;3.88;;;2.50;;
63005;SDS011;53704;52.532;6.426;2023-04-03T04:26:30;3.60;;;2.35;;
63005;SDS011;53704;52.532;6.426;2023-04-03T04:28:55;4.57;;;2.17;;
63005;SDS011;53704;52.532;6.426;2023-04-03T04:31:21;3.40;;;2.63;;
63005;SDS011;53704;52.532;6.426;2023-04-03T04:33:46;5.32;;;2.70;;
63005;SDS011;53704;52.532;6.426;2023-04-03T04:36:11;3.08;;;2.33;;
63005;SDS011;53704;52.532;6.426;2023-04-03T04:38:37;10.95;;;2.53;;
63005;SDS011;53704;52.532;6.426;2023-04-03T04:41:03;8.00;;;2.55;;
63005;SDS011;53704;52.532;6.426;2023-04-03T04:43:29;3.35;;;2.08;;
63005;SDS011;53704;52.532;6.426;2023-04-03T04:46:03;4.57;;;2.75;;
63005;SDS011;53704;52.532;6.426;2023-04-03T04:50:55;9.57;;;2.55;;
63005;SDS011;53704;52.532;6.426;2023-04-03T04:53:20;5.30;;;2.35;;
63005;SDS011;53704;52.532;6.426;2023-04-03T04:55:46;4.95;;;2.30;;
63005;SDS011;53704;52.532;6.426;2023-04-03T04:58:11;7.45;;;2.85;;
63005;SDS011;53704;52.532;6.426;2023-04-03T05:00:37;6.05;;;3.67;;
63005;SDS011;53704;52.532;6.426;2023-04-03T05:03:02;16.88;;;3.25;;
63005;SDS011;53704;52.532;6.426;2023-04-03T05:05:28;5.23;;;2.00;;
63005;SDS011;53704;52.532;6.426;2023-04-03T05:07:53;5.33;;;2.87;;
63005;SDS011;53704;52.532;6.426;2023-04-03T05:10:19;4.23;;;2.50;;
63005;SDS011;53704;52.532;6.426;2023-04-03T05:12:44;6.45;;;3.53;;
63005;SDS011;53704;52.532;6.426;2023-04-03T05:15:09;8.38;;;2.60;;
63005;SDS011;53704;52.532;6.426;2023-04-03T05:17:35;4.53;;;2.57;;
63005;SDS011;53704;52.532;6.426;2023-04-03T05:20:01;3.95;;;2.78;;
63005;SDS011;53704;52.532;6.426;2023-04-03T05:22:28;8.93;;;3.17;;
63005;SDS011;53704;52.532;6.426;2023-04-03T05:24:54;9.00;;;3.03;;
63005;SDS011;53704;52.532;6.426;2023-04-03T05:27:19;9.77;;;2.67;;
63005;SDS011;53704;52.532;6.426;2023-04-03T05:29:45;5.88;;;2.58;;
63005;SDS011;53704;52.532;6.426;2023-04-03T05:32:10;5.72;;;2.60;;
63005;SDS011;53704;52.532;6.426;2023-04-03T05:34:36;3.70;;;2.60;;
63005;SDS011;53704;52.532;6.426;2023-04-03T05:37:02;10.03;;;2.53;;
63005;SDS011;53704;52.532;6.426;2023-04-03T05:39:29;6.78;;;2.97;;
63005;SDS011;53704;52.532;6.426;2023-04-03T05:41:56;6.47;;;2.27;;
63005;SDS011;53704;52.532;6.426;2023-04-03T05:44:22;6.50;;;2.88;;
63005;SDS011;53704;52.532;6.426;2023-04-03T05:46:47;4.57;;;2.60;;
63005;SDS011;53704;52.532;6.426;2023-04-03T05:49:12;5.78;;;2.20;;
63005;SDS011;53704;52.532;6.426;2023-04-03T05:51:38;13.07;;;3.65;;
63005;SDS011;53704;52.532;6.426;2023-04-03T05:56:33;6.50;;;2.40;;
63005;SDS011;53704;52.532;6.426;2023-04-03T05:58:59;5.87;;;2.47;;
63005;SDS011;53704;52.532;6.426;2023-04-03T06:01:24;5.57;;;2.42;;
63005;SDS011;53704;52.532;6.426;2023-04-03T06:03:50;6.15;;;2.55;;
63005;SDS011;53704;52.532;6.426;2023-04-03T06:06:15;8.63;;;2.55;;
63005;SDS011;53704;52.532;6.426;2023-04-03T06:08:41;6.95;;;2.53;;
63005;SDS011;53704;52.532;6.426;2023-04-03T06:11:06;3.67;;;2.20;;
63005;SDS011;53704;52.532;6.426;2023-04-03T06:13:33;4.43;;;2.63;;
63005;SDS011;53704;52.532;6.426;2023-04-03T06:16:00;8.15;;;2.60;;
63005;SDS011;53704;52.532;6.426;2023-04-03T06:18:25;6.60;;;2.67;;
63005;SDS011;53704;52.532;6.426;2023-04-03T06:20:51;8.02;;;2.28;;
63005;SDS011;53704;52.532;6.426;2023-04-03T06:23:16;8.05;;;2.83;;
63005;SDS011;53704;52.532;6.426;2023-04-03T06:25:42;5.43;;;2.08;;
63005;SDS011;53704;52.532;6.426;2023-04-03T06:28:08;14.60;;;2.80;;
63005;SDS011;53704;52.532;6.426;2023-04-03T06:30:35;5.72;;;2.75;;
63005;SDS011;53704;52.532;6.426;2023-04-03T06:33:01;11.90;;;2.30;;
63005;SDS011;53704;52.532;6.426;2023-04-03T06:35:26;7.80;;;1.80;;
63005;SDS011;53704;52.532;6.426;2023-04-03T06:37:53;10.02;;;2.47;;
63005;SDS011;53704;52.532;6.426;2023-04-03T06:40:20;3.80;;;1.90;;
63005;SDS011;53704;52.532;6.426;2023-04-03T06:42:47;9.98;;;2.88;;
63005;SDS011;53704;52.532;6.426;2023-04-03T06:45:12;6.72;;;2.22;;
63005;SDS011;53704;52.532;6.426;2023-04-03T06:47:39;3.65;;;1.73;;
63005;SDS011;53704;52.532;6.426;2023-04-03T06:50:04;5.13;;;2.10;;
63005;SDS011;53704;52.532;6.426;2023-04-03T06:52:31;10.75;;;1.83;;
63005;SDS011;53704;52.532;6.426;2023-04-03T06:54:57;4.22;;;2.20;;
63005;SDS011;53704;52.532;6.426;2023-04-03T06:57:24;4.22;;;1.92;;
63005;SDS011;53704;52.532;6.426;2023-04-03T06:59:50;6.18;;;2.35;;
63005;SDS011;53704;52.532;6.426;2023-04-03T07:02:16;4.93;;;1.88;;
63005;SDS011;53704;52.532;6.426;2023-04-03T07:04:41;4.68;;;2.10;;
63005;SDS011;53704;52.532;6.426;2023-04-03T07:07:07;5.40;;;2.28;;
63005;SDS011;53704;52.532;6.426;2023-04-03T07:09:33;3.17;;;1.60;;
63005;SDS011;53704;52.532;6.426;2023-04-03T07:11:58;10.30;;;2.67;;
63005;SDS011;53704;52.532;6.426;2023-04-03T07:14:24;2.85;;;1.65;;
63005;SDS011;53704;52.532;6.426;2023-04-03T07:16:50;10.05;;;1.80;;
63005;SDS011;53704;52.532;6.426;2023-04-03T07:19:15;4.80;;;2.03;;
63005;SDS011;53704;52.532;6.426;2023-04-03T07:21:40;5.80;;;1.88;;
63005;SDS011;53704;52.532;6.426;2023-04-03T07:24:07;5.18;;;2.22;;
63005;SDS011;53704;52.532;6.426;2023-04-03T07:26:32;3.75;;;1.50;;
63005;SDS011;53704;52.532;6.426;2023-04-03T07:28:58;2.90;;;1.50;;
63005;SDS011;53704;52.532;6.426;2023-04-03T07:31:24;3.50;;;1.70;;
63005;SDS011;53704;52.532;6.426;2023-04-03T07:33:50;10.52;;;1.90;;
63005;SDS011;53704;52.532;6.426;2023-04-03T07:36:17;2.45;;;1.38;;
63005;SDS011;53704;52.532;6.426;2023-04-03T07:38:44;2.85;;;1.60;;
63005;SDS011;53704;52.532;6.426;2023-04-03T07:41:14;4.30;;;1.35;;
63005;SDS011;53704;52.532;6.426;2023-04-03T07:43:40;1.25;;;1.15;;
63005;SDS011;53704;52.532;6.426;2023-04-03T07:46:07;3.08;;;1.52;;
63005;SDS011;53704;52.532;6.426;2023-04-03T07:48:32;3.85;;;1.67;;
63005;SDS011;53704;52.532;6.426;2023-04-03T07:51:01;3.63;;;1.63;;
63005;SDS011;53704;52.532;6.426;2023-04-03T07:53:28;4.47;;;2.13;;
63005;SDS011;53704;52.532;6.426;2023-04-03T07:55:57;3.42;;;1.48;;
63005;SDS011;53704;52.532;6.426;2023-04-03T07:58:23;2.50;;;1.60;;
63005;SDS011;53704;52.532;6.426;2023-04-03T08:00:49;5.75;;;1.70;;
63005;SDS011;53704;52.532;6.426;2023-04-03T08:03:15;3.90;;;1.60;;
63005;SDS011;53704;52.532;6.426;2023-04-03T08:05:42;4.20;;;1.75;;
63005;SDS011;53704;52.532;6.426;2023-04-03T08:08:12;9.60;;;1.63;;
63005;SDS011;53704;52.532;6.426;2023-04-03T08:10:43;0.95;;;0.95;;
63005;SDS011;53704;52.532;6.426;2023-04-03T08:13:09;3.20;;;1.13;;
63005;SDS011;53704;52.532;6.426;2023-04-03T08:15:35;4.72;;;1.67;;
63005;SDS011;53704;52.532;6.426;2023-04-03T08:18:01;6.10;;;1.30;;
63005;SDS011;53704;52.532;6.426;2023-04-03T08:20:27;3.47;;;1.55;;
63005;SDS011;53704;52.532;6.426;2023-04-03T08:22:53;5.78;;;1.45;;
63005;SDS011;53704;52.532;6.426;2023-04-03T08:25:19;2.20;;;1.60;;
63005;SDS011;53704;52.532;6.426;2023-04-03T08:27:45;7.00;;;1.75;;
63005;SDS011;53704;52.532;6.426;2023-04-03T08:30:11;4.60;;;1.08;;
63005;SDS011;53704;52.532;6.426;2023-04-03T08:32:37;1.15;;;1.05;;
63005;SDS011;53704;52.532;6.426;2023-04-03T08:35:03;2.15;;;1.30;;
63005;SDS011;53704;52.532;6.426;2023-04-03T08:37:29;1.73;;;1.08;;
63005;SDS011;53704;52.532;6.426;2023-04-03T08:39:55;2.30;;;1.23;;
63005;SDS011;53704;52.532;6.426;2023-04-03T08:50:06;4.32;;;1.13;;
63005;SDS011;53704;52.532;6.426;2023-04-03T08:52:52;4.55;;;0.95;;
63005;SDS011;53704;52.532;6.426;2023-04-03T08:55:38;3.47;;;1.30;;
63005;SDS011;53704;52.532;6.426;2023-04-03T08:58:12;3.22;;;0.90;;
63005;SDS011;53704;52.532;6.426;2023-04-03T09:00:59;3.47;;;0.90;;
63005;SDS011;53704;52.532;6.426;2023-04-03T09:03:28;1.00;;;0.80;;
63005;SDS011;53704;52.532;6.426;2023-04-03T09:14:52;1.20;;;0.73;;
63005;SDS011;53704;52.532;6.426;2023-04-03T09:26:09;1.98;;;0.77;;
63005;SDS011;53704;52.532;6.426;2023-04-03T09:28:42;5.65;;;0.95;;
63005;SDS011;53704;52.532;6.426;2023-04-03T09:31:31;1.88;;;0.90;;
63005;SDS011;53704;52.532;6.426;2023-04-03T09:34:01;1.42;;;0.93;;
63005;SDS011;53704;52.532;6.426;2023-04-03T09:36:46;0.98;;;0.80;;
63005;SDS011;53704;52.532;6.426;2023-04-03T09:39:20;2.08;;;0.75;;
63005;SDS011;53704;52.532;6.426;2023-04-03T09:42:00;2.17;;;0.88;;
63005;SDS011;53704;52.532;6.426;2023-04-03T09:44:34;1.23;;;0.52;;
63005;SDS011;53704;52.532;6.426;2023-04-03T09:52:37;2.33;;;0.80;;
63005;SDS011;53704;52.532;6.426;2023-04-03T09:57:55;2.25;;;0.70;;
63005;SDS011;53704;52.532;6.426;2023-04-03T10:00:28;0.82;;;0.60;;
63005;SDS011;53704;52.532;6.426;2023-04-03T10:03:00;4.57;;;0.85;;
63005;SDS011;53704;52.532;6.426;2023-04-03T10:05:38;1.05;;;0.70;;
63005;SDS011;53704;52.532;6.426;2023-04-03T10:08:10;2.70;;;0.77;;
63005;SDS011;53704;52.532;6.426;2023-04-03T10:10:38;1.92;;;0.90;;
63005;SDS011;53704;52.532;6.426;2023-04-03T10:13:12;3.17;;;0.77;;
63005;SDS011;53704;52.532;6.426;2023-04-03T10:15:42;0.95;;;0.50;;
63005;SDS011;53704;52.532;6.426;2023-04-03T10:18:31;3.70;;;0.82;;
63005;SDS011;53704;52.532;6.426;2023-04-03T10:21:12;3.60;;;0.70;;
63005;SDS011;53704;52.532;6.426;2023-04-03T10:29:02;0.60;;;0.60;;
63005;SDS011;53704;52.532;6.426;2023-04-03T10:31:44;2.67;;;0.90;;
63005;SDS011;53704;52.532;6.426;2023-04-03T10:34:31;1.70;;;0.60;;
63005;SDS011;53704;52.532;6.426;2023-04-03T10:37:05;1.23;;;0.88;;
63005;SDS011;53704;52.532;6.426;2023-04-03T10:39:54;2.90;;;0.75;;
63005;SDS011;53704;52.532;6.426;2023-04-03T10:53:39;0.88;;;0.60;;
63005;SDS011;53704;52.532;6.426;2023-04-03T10:56:31;1.27;;;0.60;;
63005;SDS011;53704;52.532;6.426;2023-04-03T11:04:53;1.73;;;0.75;;
63005;SDS011;53704;52.532;6.426;2023-04-03T11:07:26;0.88;;;0.80;;
63005;SDS011;53704;52.532;6.426;2023-04-03T11:09:57;2.15;;;0.77;;
63005;SDS011;53704;52.532;6.426;2023-04-03T11:15:03;2.38;;;1.00;;
63005;SDS011;53704;52.532;6.426;2023-04-03T11:17:37;0.70;;;0.70;;
63005;SDS011;53704;52.532;6.426;2023-04-03T11:22:53;1.80;;;0.70;;
63005;SDS011;53704;52.532;6.426;2023-04-03T11:25:26;0.90;;;0.80;;
63005;SDS011;53704;52.532;6.426;2023-04-03T11:27:59;2.13;;;0.82;;
63005;SDS011;53704;52.532;6.426;2023-04-03T11:30:34;1.85;;;0.85;;
63005;SDS011;53704;52.532;6.426;2023-04-03T11:35:51;0.75;;;0.70;;
63005;SDS011;53704;52.532;6.426;2023-04-03T11:38:27;1.08;;;0.60;;
63005;SDS011;53704;52.532;6.426;2023-04-03T11:40:56;1.75;;;0.80;;
63005;SDS011;53704;52.532;6.426;2023-04-03T11:43:27;2.78;;;0.85;;
63005;SDS011;53704;52.532;6.426;2023-04-03T11:53:41;4.20;;;1.02;;
63005;SDS011;53704;52.532;6.426;2023-04-03T12:04:14;1.50;;;1.05;;
63005;SDS011;53704;52.532;6.426;2023-04-03T12:09:24;1.05;;;0.63;;
63005;SDS011;53704;52.532;6.426;2023-04-03T12:11:53;2.55;;;1.23;;
63005;SDS011;53704;52.532;6.426;2023-04-03T12:14:24;1.77;;;1.00;;
63005;SDS011;53704;52.532;6.426;2023-04-03T12:16:50;1.15;;;0.90;;
63005;SDS011;53704;52.532;6.426;2023-04-03T12:19:37;1.30;;;0.75;;
63005;SDS011;53704;52.532;6.426;2023-04-03T12:22:12;1.08;;;0.77;;
63005;SDS011;53704;52.532;6.426;2023-04-03T12:24:45;1.67;;;0.75;;
63005;SDS011;53704;52.532;6.426;2023-04-03T12:29:41;7.95;;;1.05;;
63005;SDS011;53704;52.532;6.426;2023-04-03T12:32:21;1.47;;;0.77;;
63005;SDS011;53704;52.532;6.426;2023-04-03T12:46:04;2.67;;;1.25;;
63005;SDS011;53704;52.532;6.426;2023-04-03T12:51:37;2.75;;;0.90;;
63005;SDS011;53704;52.532;6.426;2023-04-03T12:57:13;1.77;;;1.20;;
63005;SDS011;53704;52.532;6.426;2023-04-03T12:59:43;7.38;;;1.20;;
63005;SDS011;53704;52.532;6.426;2023-04-03T13:02:17;1.70;;;1.10;;
63005;SDS011;53704;52.532;6.426;2023-04-03T13:04:46;2.53;;;1.33;;
63005;SDS011;53704;52.532;6.426;2023-04-03T13:07:19;2.00;;;1.08;;
63005;SDS011;53704;52.532;6.426;2023-04-03T13:10:13;3.85;;;1.13;;
63005;SDS011;53704;52.532;6.426;2023-04-03T13:15:14;3.40;;;1.17;;
63005;SDS011;53704;52.532;6.426;2023-04-03T13:17:43;2.05;;;1.10;;
63005;SDS011;53704;52.532;6.426;2023-04-03T13:20:09;1.30;;;1.17;;
63005;SDS011;53704;52.532;6.426;2023-04-03T13:25:16;3.83;;;1.45;;
63005;SDS011;53704;52.532;6.426;2023-04-03T13:27:43;1.83;;;1.48;;
63005;SDS011;53704;52.532;6.426;2023-04-03T13:33:22;1.88;;;0.88;;
63005;SDS011;53704;52.532;6.426;2023-04-03T13:36:13;2.20;;;1.10;;
63005;SDS011;53704;52.532;6.426;2023-04-03T13:38:46;2.85;;;1.10;;
63005;SDS011;53704;52.532;6.426;2023-04-03T13:41:24;2.13;;;0.90;;
63005;SDS011;53704;52.532;6.426;2023-04-03T13:43:50;6.05;;;1.02;;
63005;SDS011;53704;52.532;6.426;2023-04-03T13:53:42;4.95;;;1.75;;
63005;SDS011;53704;52.532;6.426;2023-04-03T13:58:51;1.85;;;1.15;;
63005;SDS011;53704;52.532;6.426;2023-04-03T14:04:20;1.05;;;0.82;;
63005;SDS011;53704;52.532;6.426;2023-04-03T14:06:49;1.85;;;1.27;;
63005;SDS011;53704;52.532;6.426;2023-04-03T14:09:15;1.50;;;1.25;;
63005;SDS011;53704;52.532;6.426;2023-04-03T14:11:42;4.07;;;1.00;;
63005;SDS011;53704;52.532;6.426;2023-04-03T14:14:18;2.88;;;1.13;;
63005;SDS011;53704;52.532;6.426;2023-04-03T14:16:50;2.63;;;1.20;;
63005;SDS011;53704;52.532;6.426;2023-04-03T14:19:21;1.42;;;1.20;;
63005;SDS011;53704;52.532;6.426;2023-04-03T14:21:52;4.65;;;1.63;;
63005;SDS011;53704;52.532;6.426;2023-04-03T14:24:18;1.98;;;1.20;;
63005;SDS011;53704;52.532;6.426;2023-04-03T14:26:47;3.13;;;1.00;;
63005;SDS011;53704;52.532;6.426;2023-04-03T14:29:14;2.38;;;1.20;;
63005;SDS011;53704;52.532;6.426;2023-04-03T14:31:42;6.57;;;1.23;;
63005;SDS011;53704;52.532;6.426;2023-04-03T14:34:10;2.33;;;1.45;;
63005;SDS011;53704;52.532;6.426;2023-04-03T14:36:36;4.95;;;1.55;;
63005;SDS011;53704;52.532;6.426;2023-04-03T14:39:03;6.57;;;1.30;;
63005;SDS011;53704;52.532;6.426;2023-04-03T14:41:29;2.40;;;1.33;;
63005;SDS011;53704;52.532;6.426;2023-04-03T14:43:56;2.20;;;1.38;;
63005;SDS011;53704;52.532;6.426;2023-04-03T14:46:24;5.22;;;1.20;;
63005;SDS011;53704;52.532;6.426;2023-04-03T14:48:53;1.10;;;1.00;;
63005;SDS011;53704;52.532;6.426;2023-04-03T14:51:18;4.35;;;1.52;;
63005;SDS011;53704;52.532;6.426;2023-04-03T14:53:44;5.53;;;1.13;;
63005;SDS011;53704;52.532;6.426;2023-04-03T14:56:18;0.85;;;0.85;;
63005;SDS011;53704;52.532;6.426;2023-04-03T14:58:52;2.95;;;1.30;;
63005;SDS011;53704;52.532;6.426;2023-04-03T15:01:21;5.25;;;1.20;;
63005;SDS011;53704;52.532;6.426;2023-04-03T15:03:46;6.93;;;1.52;;
63005;SDS011;53704;52.532;6.426;2023-04-03T15:06:12;2.53;;;1.40;;
63005;SDS011;53704;52.532;6.426;2023-04-03T15:08:39;2.15;;;1.10;;
63005;SDS011;53704;52.532;6.426;2023-04-03T15:11:07;2.92;;;1.15;;
63005;SDS011;53704;52.532;6.426;2023-04-03T15:13:35;5.85;;;1.35;;
63005;SDS011;53704;52.532;6.426;2023-04-03T15:16:00;4.78;;;1.15;;
63005;SDS011;53704;52.532;6.426;2023-04-03T15:18:26;1.20;;;1.10;;
63005;SDS011;53704;52.532;6.426;2023-04-03T15:20:57;3.60;;;1.70;;
63005;SDS011;53704;52.532;6.426;2023-04-03T15:23:23;3.20;;;1.30;;
63005;SDS011;53704;52.532;6.426;2023-04-03T15:25:53;4.30;;;0.90;;
63005;SDS011;53704;52.532;6.426;2023-04-03T15:28:30;3.17;;;1.25;;
63005;SDS011;53704;52.532;6.426;2023-04-03T15:30:58;5.47;;;1.33;;
63005;SDS011;53704;52.532;6.426;2023-04-03T15:33:25;1.90;;;1.15;;
63005;SDS011;53704;52.532;6.426;2023-04-03T15:35:54;2.58;;;1.27;;
63005;SDS011;53704;52.532;6.426;2023-04-03T15:38:19;1.85;;;0.93;;
63005;SDS011;53704;52.532;6.426;2023-04-03T15:40:45;2.13;;;1.48;;
63005;SDS011;53704;52.532;6.426;2023-04-03T15:43:12;2.70;;;1.17;;
63005;SDS011;53704;52.532;6.426;2023-04-03T15:45:38;2.63;;;1.30;;
63005;SDS011;53704;52.532;6.426;2023-04-03T15:48:04;2.35;;;1.50;;
63005;SDS011;53704;52.532;6.426;2023-04-03T15:50:33;2.63;;;1.60;;
63005;SDS011;53704;52.532;6.426;2023-04-03T15:52:59;5.82;;;1.70;;
63005;SDS011;53704;52.532;6.426;2023-04-03T15:55:27;2.10;;;1.38;;
63005;SDS011;53704;52.532;6.426;2023-04-03T15:57:55;2.80;;;1.50;;
63005;SDS011;53704;52.532;6.426;2023-04-03T16:00:21;2.67;;;1.15;;
63005;SDS011;53704;52.532;6.426;2023-04-03T16:02:48;1.75;;;1.33;;
63005;SDS011;53704;52.532;6.426;2023-04-03T16:05:17;1.58;;;1.20;;
63005;SDS011;53704;52.532;6.426;2023-04-03T16:07:44;6.90;;;1.38;;
63005;SDS011;53704;52.532;6.426;2023-04-03T16:10:11;5.05;;;1.67;;
63005;SDS011;53704;52.532;6.426;2023-04-03T16:12:39;3.42;;;1.70;;
63005;SDS011;53704;52.532;6.426;2023-04-03T16:15:05;1.98;;;1.42;;
63005;SDS011;53704;52.532;6.426;2023-04-03T16:17:31;2.88;;;1.33;;
63005;SDS011;53704;52.532;6.426;2023-04-03T16:19:58;4.43;;;1.40;;
63005;SDS011;53704;52.532;6.426;2023-04-03T16:22:25;1.42;;;1.10;;
63005;SDS011;53704;52.532;6.426;2023-04-03T16:24:53;3.00;;;1.05;;
63005;SDS011;53704;52.532;6.426;2023-04-03T16:27:19;5.85;;;1.25;;
63005;SDS011;53704;52.532;6.426;2023-04-03T16:29:45;2.10;;;1.15;;
63005;SDS011;53704;52.532;6.426;2023-04-03T16:32:10;2.42;;;1.20;;
63005;SDS011;53704;52.532;6.426;2023-04-03T16:34:37;6.18;;;1.27;;
63005;SDS011;53704;52.532;6.426;2023-04-03T16:37:02;11.60;;;1.75;;
63005;SDS011;53704;52.532;6.426;2023-04-03T16:39:28;2.95;;;1.23;;
63005;SDS011;53704;52.532;6.426;2023-04-03T16:41:53;3.05;;;1.75;;
63005;SDS011;53704;52.532;6.426;2023-04-03T16:44:19;2.45;;;1.55;;
63005;SDS011;53704;52.532;6.426;2023-04-03T16:46:45;4.28;;;1.50;;
63005;SDS011;53704;52.532;6.426;2023-04-03T16:49:10;2.65;;;1.48;;
63005;SDS011;53704;52.532;6.426;2023-04-03T16:51:36;2.67;;;1.75;;
63005;SDS011;53704;52.532;6.426;2023-04-03T16:54:01;3.08;;;1.42;;
63005;SDS011;53704;52.532;6.426;2023-04-03T16:56:26;5.07;;;1.63;;
63005;SDS011;53704;52.532;6.426;2023-04-03T16:58:52;1.20;;;1.10;;
63005;SDS011;53704;52.532;6.426;2023-04-03T17:01:19;6.20;;;1.30;;
63005;SDS011;53704;52.532;6.426;2023-04-03T17:03:45;2.65;;;1.27;;
63005;SDS011;53704;52.532;6.426;2023-04-03T17:06:12;3.05;;;1.60;;
63005;SDS011;53704;52.532;6.426;2023-04-03T17:08:43;1.52;;;1.40;;
63005;SDS011;53704;52.532;6.426;2023-04-03T17:11:09;6.07;;;1.33;;